Time;durP1;ratioP1;P1;durP2;ratioP2;P2;SDS_P1;SDS_P2;PMS_P1;PMS_P2;Temp;Humidity;BMP_temperature;BMP_pressure;BME280_temperature;BME280_humidity;BME280_pressure;Samples;Min_cycle;Max_cycle;Signal;HPM_P1;HPM_P2
2023/08/25 00:01:34;;;;;;;0.17;0.13;;;19.00;99.90;;;;;;5064939;28;20048;-67
2023/08/25 00:03:59;;;;;;;0.43;0.10;;;18.90;99.90;;;;;;5060552;28;20120;-68
2023/08/25 00:06:25;;;;;;;0.70;0.32;;;18.90;99.90;;;;;;5069058;28;20166;-68
2023/08/25 00:08:51;;;;;;;1.00;0.40;;;18.80;99.90;;;;;;5063550;28;20112;-68
2023/08/25 00:11:17;;;;;;;0.90;0.30;;;18.80;99.90;;;;;;5065373;28;20055;-68
2023/08/25 00:13:43;;;;;;;0.40;0.20;;;18.70;99.90;;;;;;5064618;28;20051;-68
2023/08/25 00:16:11;;;;;;;0.85;0.30;;;18.70;99.90;;;;;;5067110;28;20501;-68
2023/08/25 00:18:37;;;;;;;0.43;0.30;;;18.70;99.90;;;;;;5061519;28;20491;-67
2023/08/25 00:21:03;;;;;;;1.38;0.60;;;18.70;99.90;;;;;;5066768;28;20060;-67
2023/08/25 00:23:28;;;;;;;1.23;0.38;;;18.70;99.90;;;;;;5063750;28;20503;-68
2023/08/25 00:25:54;;;;;;;1.08;0.40;;;18.70;99.90;;;;;;5066409;28;20504;-68
2023/08/25 00:28:20;;;;;;;0.82;0.52;;;18.70;99.90;;;;;;5060082;28;20036;-69
2023/08/25 00:30:47;;;;;;;0.47;0.20;;;18.70;99.90;;;;;;5064594;28;20120;-68
2023/08/25 00:33:13;;;;;;;0.43;0.28;;;18.70;99.90;;;;;;5066557;28;20056;-68
2023/08/25 00:35:41;;;;;;;0.52;0.28;;;18.70;99.90;;;;;;5067422;28;20048;-68
2023/08/25 00:38:07;;;;;;;1.27;0.40;;;18.70;99.90;;;;;;5068486;28;20040;-67
2023/08/25 00:40:36;;;;;;;0.80;0.60;;;18.70;99.90;;;;;;5067310;28;20036;-67
2023/08/25 00:43:03;;;;;;;0.80;0.30;;;18.70;99.90;;;;;;5066661;28;20045;-67
2023/08/25 00:45:31;;;;;;;0.80;0.38;;;18.80;99.90;;;;;;5066786;28;20071;-68
2023/08/25 00:47:57;;;;;;;1.00;0.30;;;18.80;99.90;;;;;;5067002;28;20139;-67
2023/08/25 00:50:23;;;;;;;1.48;0.50;;;18.80;99.90;;;;;;5066043;28;20044;-67
2023/08/25 00:52:49;;;;;;;0.40;0.25;;;18.80;99.90;;;;;;5065646;28;20039;-67
2023/08/25 00:55:15;;;;;;;0.65;0.40;;;18.80;99.90;;;;;;5063257;28;20435;-66
2023/08/25 00:57:41;;;;;;;0.70;0.50;;;18.80;99.90;;;;;;5062175;28;20399;-67
2023/08/25 01:00:09;;;;;;;0.30;0.25;;;18.80;99.90;;;;;;5064554;28;20049;-67
2023/08/25 01:02:35;;;;;;;0.70;0.40;;;18.80;99.90;;;;;;5062928;28;20044;-69
2023/08/25 01:05:01;;;;;;;1.05;0.70;;;18.90;99.90;;;;;;5053768;28;20064;-69
2023/08/25 01:07:27;;;;;;;0.80;0.20;;;19.00;99.90;;;;;;5066486;28;20071;-69
2023/08/25 01:09:54;;;;;;;0.60;0.40;;;18.90;99.90;;;;;;5062043;28;20036;-69
2023/08/25 01:12:31;;;;;;;1.10;0.45;;;18.90;99.90;;;;;;5062657;28;20147;-69
2023/08/25 01:15:07;;;;;;;0.52;0.40;;;19.00;99.90;;;;;;5065250;28;20119;-69
2023/08/25 01:17:56;;;;;;;0.50;0.40;;;19.00;99.90;;;;;;5065512;28;20037;-69
2023/08/25 01:20:23;;;;;;;0.80;0.60;;;19.00;99.90;;;;;;5057183;28;20052;-69
2023/08/25 01:23:09;;;;;;;1.02;0.50;;;19.10;99.90;;;;;;5063065;28;20042;-69
2023/08/25 01:25:35;;;;;;;1.23;0.68;;;19.10;99.90;;;;;;5054205;28;20052;-69
2023/08/25 01:28:03;;;;;;;1.33;0.43;;;19.10;99.90;;;;;;5066085;28;20044;-70
2023/08/25 01:30:31;;;;;;;0.57;0.40;;;19.10;99.90;;;;;;5064343;28;20047;-68
2023/08/25 01:32:57;;;;;;;0.82;0.57;;;19.10;99.90;;;;;;5061375;28;20361;-69
2023/08/25 01:35:29;;;;;;;0.88;0.60;;;19.10;99.90;;;;;;5062536;28;20380;-69
2023/08/25 01:38:03;;;;;;;0.98;0.60;;;19.10;99.90;;;;;;5062289;28;20051;-69
2023/08/25 01:40:50;;;;;;;1.50;0.52;;;19.10;99.90;;;;;;5058566;28;20083;-68
2023/08/25 01:43:18;;;;;;;1.35;0.60;;;19.00;99.90;;;;;;5060375;28;20127;-69
2023/08/25 01:45:46;;;;;;;1.15;0.55;;;19.00;99.90;;;;;;5063825;28;20059;-69
2023/08/25 01:48:14;;;;;;;1.23;0.50;;;19.00;99.90;;;;;;5061779;28;20079;-69
2023/08/25 01:50:41;;;;;;;1.08;0.60;;;19.00;99.90;;;;;;5061945;28;20040;-68
2023/08/25 01:53:08;;;;;;;1.27;0.60;;;19.00;99.90;;;;;;5064050;28;20469;-69
2023/08/25 01:55:34;;;;;;;1.95;0.50;;;18.90;99.90;;;;;;5062949;28;20028;-69
2023/08/25 01:58:01;;;;;;;1.25;0.73;;;18.90;99.90;;;;;;5066615;28;20655;-68
2023/08/25 02:00:27;;;;;;;1.23;0.50;;;18.80;99.90;;;;;;5063292;28;20112;-69
2023/08/25 02:02:52;;;;;;;1.20;0.70;;;18.80;99.90;;;;;;5064667;28;20119;-68
2023/08/25 02:05:18;;;;;;;0.50;0.35;;;18.80;99.90;;;;;;5067338;28;20056;-69
2023/08/25 02:07:44;;;;;;;1.42;0.60;;;18.80;99.90;;;;;;5068737;28;20043;-69
2023/08/25 02:10:10;;;;;;;1.15;0.32;;;18.80;99.90;;;;;;5063796;28;20087;-69
2023/08/25 02:12:36;;;;;;;0.85;0.63;;;18.80;99.90;;;;;;5069343;28;20045;-69
2023/08/25 02:15:01;;;;;;;1.25;0.52;;;18.90;99.90;;;;;;5065463;28;20037;-69
2023/08/25 02:17:27;;;;;;;2.03;0.60;;;18.90;99.90;;;;;;5067639;28;20056;-69
2023/08/25 02:19:53;;;;;;;2.03;1.00;;;18.90;99.90;;;;;;5068665;28;20036;-69
2023/08/25 02:22:18;;;;;;;1.23;0.82;;;18.90;99.90;;;;;;5069023;28;20131;-68
2023/08/25 02:24:44;;;;;;;0.90;0.32;;;18.90;99.90;;;;;;5068040;28;20103;-69
2023/08/25 02:27:10;;;;;;;1.23;0.75;;;18.90;99.90;;;;;;5071633;28;20033;-69
2023/08/25 02:29:35;;;;;;;1.45;0.90;;;18.90;99.90;;;;;;5070726;28;20116;-69
2023/08/25 02:32:03;;;;;;;1.38;0.95;;;18.80;99.90;;;;;;5071625;28;20518;-69
2023/08/25 02:34:28;;;;;;;1.38;0.85;;;18.80;99.90;;;;;;5068632;28;20036;-69
2023/08/25 02:36:54;;;;;;;1.10;0.68;;;18.80;99.90;;;;;;5069619;28;20103;-69
2023/08/25 02:39:20;;;;;;;2.00;1.13;;;18.80;99.90;;;;;;5070973;28;20090;-70
2023/08/25 02:41:46;;;;;;;1.85;0.80;;;18.80;99.90;;;;;;5070065;28;20101;-69
2023/08/25 02:44:11;;;;;;;1.30;0.82;;;18.80;99.90;;;;;;5070909;28;20408;-69
2023/08/25 02:46:37;;;;;;;1.20;0.85;;;18.80;99.90;;;;;;5068381;28;20059;-69
2023/08/25 02:49:03;;;;;;;1.77;1.00;;;18.80;99.90;;;;;;5068312;28;20036;-69
2023/08/25 02:51:29;;;;;;;2.72;1.23;;;18.80;99.90;;;;;;5068736;28;20058;-69
2023/08/25 02:53:55;;;;;;;1.33;0.70;;;18.80;99.90;;;;;;5069198;28;20119;-69
2023/08/25 02:56:20;;;;;;;1.63;0.90;;;18.80;99.90;;;;;;5066177;28;20028;-69
2023/08/25 02:58:46;;;;;;;1.73;0.90;;;18.70;99.90;;;;;;5066266;28;20048;-70
2023/08/25 03:01:12;;;;;;;1.50;0.88;;;18.70;99.90;;;;;;5068334;28;20485;-69
2023/08/25 03:03:38;;;;;;;1.50;0.95;;;18.70;99.90;;;;;;5067311;28;20127;-69
2023/08/25 03:06:04;;;;;;;1.80;0.98;;;18.70;99.90;;;;;;5063366;28;20556;-69
2023/08/25 03:08:30;;;;;;;1.95;1.15;;;18.60;99.90;;;;;;5066221;28;20452;-69
2023/08/25 03:10:55;;;;;;;1.20;0.80;;;18.60;99.90;;;;;;5064700;28;20098;-69
2023/08/25 03:13:21;;;;;;;1.30;0.52;;;18.60;99.90;;;;;;5066182;28;20495;-69
2023/08/25 03:15:52;;;;;;;1.13;0.65;;;18.50;99.90;;;;;;5065806;28;20035;-69
2023/08/25 03:18:17;;;;;;;1.08;0.75;;;18.50;99.90;;;;;;5067015;28;20174;-69
2023/08/25 03:20:43;;;;;;;1.50;0.90;;;18.50;99.90;;;;;;5068620;28;20040;-69
2023/08/25 03:23:09;;;;;;;2.05;0.82;;;18.40;99.90;;;;;;5068094;28;20040;-69
2023/08/25 03:25:38;;;;;;;1.48;0.77;;;18.40;99.90;;;;;;5066315;28;20245;-70
2023/08/25 03:28:04;;;;;;;2.05;0.70;;;18.30;99.90;;;;;;5068470;28;20115;-68
2023/08/25 03:30:30;;;;;;;1.33;0.90;;;18.30;99.90;;;;;;5066862;28;20082;-69
2023/08/25 03:32:55;;;;;;;1.70;0.65;;;18.30;99.90;;;;;;5063693;28;20041;-69
2023/08/25 03:35:21;;;;;;;1.85;0.95;;;18.30;99.90;;;;;;5060982;28;20044;-68
2023/08/25 03:37:47;;;;;;;1.40;0.88;;;18.20;99.90;;;;;;5067993;28;20317;-69
2023/08/25 03:40:12;;;;;;;0.88;0.50;;;18.20;99.90;;;;;;5063540;28;20036;-69
2023/08/25 03:42:38;;;;;;;2.22;1.08;;;18.20;99.90;;;;;;5068298;28;20090;-69
2023/08/25 03:45:05;;;;;;;0.85;0.52;;;18.20;99.90;;;;;;5066084;28;20044;-69
2023/08/25 03:47:31;;;;;;;1.33;0.80;;;18.10;99.90;;;;;;5062636;28;20045;-68
2023/08/25 03:49:57;;;;;;;2.10;1.02;;;18.20;99.90;;;;;;5061188;28;20029;-69
2023/08/25 03:52:23;;;;;;;1.33;0.75;;;18.20;99.90;;;;;;5050170;28;20046;-69
2023/08/25 03:54:48;;;;;;;1.25;0.65;;;18.20;99.90;;;;;;5068430;28;20111;-69
2023/08/25 03:57:14;;;;;;;1.77;1.00;;;18.20;99.90;;;;;;5063763;28;20029;-69
2023/08/25 03:59:40;;;;;;;2.75;1.00;;;18.20;99.90;;;;;;5062709;28;20072;-68
2023/08/25 04:02:05;;;;;;;2.03;0.75;;;18.20;99.90;;;;;;5064006;28;20054;-69
2023/08/25 04:04:34;;;;;;;2.40;1.35;;;18.20;99.90;;;;;;5064864;28;20033;-69
2023/08/25 04:07:00;;;;;;;1.08;0.65;;;18.30;99.90;;;;;;5068949;28;20036;-69
2023/08/25 04:09:25;;;;;;;2.00;1.05;;;18.30;99.90;;;;;;5064101;28;20490;-69
2023/08/25 04:11:53;;;;;;;1.40;0.60;;;18.30;99.90;;;;;;5061834;28;20049;-69
2023/08/25 04:14:19;;;;;;;2.72;1.10;;;18.30;99.90;;;;;;5064200;28;20131;-70
2023/08/25 04:16:45;;;;;;;1.55;1.05;;;18.40;99.90;;;;;;5067795;28;20120;-69
2023/08/25 04:19:10;;;;;;;1.17;0.68;;;18.40;99.90;;;;;;5061490;28;20524;-69
2023/08/25 04:21:36;;;;;;;2.10;1.02;;;18.40;99.90;;;;;;5065435;28;20075;-69
2023/08/25 04:24:02;;;;;;;1.70;0.77;;;18.50;99.90;;;;;;5067087;28;20043;-69
2023/08/25 04:26:28;;;;;;;2.47;0.90;;;18.50;99.90;;;;;;5047809;28;20553;-69
2023/08/25 04:28:54;;;;;;;1.80;0.93;;;18.50;99.90;;;;;;5060213;28;20117;-69
2023/08/25 04:31:19;;;;;;;2.25;1.15;;;18.50;99.90;;;;;;5057382;28;20045;-69
2023/08/25 04:33:45;;;;;;;2.35;1.27;;;18.50;99.90;;;;;;5061069;28;20028;-69
2023/08/25 04:36:13;;;;;;;1.63;0.70;;;18.50;99.90;;;;;;5064086;28;20516;-69
2023/08/25 04:38:39;;;;;;;1.75;0.82;;;18.50;99.90;;;;;;5064230;28;20166;-69
2023/08/25 04:41:05;;;;;;;2.00;1.25;;;18.50;99.90;;;;;;5067187;28;20501;-69
2023/08/25 04:43:30;;;;;;;2.08;1.30;;;18.50;99.90;;;;;;5065043;28;20803;-68
2023/08/25 04:45:56;;;;;;;2.85;1.50;;;18.50;99.90;;;;;;5065901;28;20052;-69
2023/08/25 04:48:22;;;;;;;5.40;1.85;;;18.50;99.90;;;;;;5066878;28;20048;-69
2023/08/25 04:50:49;;;;;;;2.45;1.17;;;18.50;99.90;;;;;;5066754;28;20052;-69
2023/08/25 04:53:14;;;;;;;2.05;1.00;;;18.50;99.90;;;;;;5068977;28;20043;-69
2023/08/25 04:55:40;;;;;;;1.85;0.98;;;18.50;99.90;;;;;;5068092;28;20048;-69
2023/08/25 04:58:06;;;;;;;2.38;1.20;;;18.50;99.90;;;;;;5067495;28;20045;-69
2023/08/25 05:00:32;;;;;;;2.47;1.13;;;18.40;99.90;;;;;;5065608;28;20051;-69
2023/08/25 05:02:58;;;;;;;2.47;1.45;;;18.40;99.90;;;;;;5066750;28;20036;-69
2023/08/25 05:05:23;;;;;;;1.85;1.23;;;18.40;99.90;;;;;;5067008;28;20544;-69
2023/08/25 05:07:51;;;;;;;1.80;1.23;;;18.30;99.90;;;;;;5065053;28;20033;-69
2023/08/25 05:10:16;;;;;;;4.20;1.60;;;18.30;99.90;;;;;;5066113;28;20055;-68
2023/08/25 05:12:42;;;;;;;2.70;1.25;;;18.30;99.90;;;;;;5065389;28;20040;-69
2023/08/25 05:15:08;;;;;;;2.67;1.00;;;18.30;99.90;;;;;;5064772;28;20116;-69
2023/08/25 05:17:34;;;;;;;2.47;1.08;;;18.30;99.90;;;;;;5066816;28;20079;-69
2023/08/25 05:20:00;;;;;;;2.80;1.20;;;18.30;99.90;;;;;;5060368;28;20068;-69
2023/08/25 05:22:25;;;;;;;2.00;1.05;;;18.30;99.90;;;;;;5065609;28;20052;-69
2023/08/25 05:24:54;;;;;;;2.13;1.30;;;18.40;99.90;;;;;;5065692;28;20047;-69
2023/08/25 05:27:20;;;;;;;3.90;1.45;;;18.40;99.90;;;;;;5066069;28;20488;-69
2023/08/25 05:29:46;;;;;;;2.15;1.27;;;18.40;99.90;;;;;;5066643;28;20154;-69
2023/08/25 05:32:11;;;;;;;5.28;1.33;;;18.50;99.90;;;;;;5067098;28;20048;-69
2023/08/25 05:34:37;;;;;;;2.15;0.98;;;18.60;99.90;;;;;;5064925;28;20032;-69
2023/08/25 05:37:03;;;;;;;5.05;1.67;;;18.70;99.90;;;;;;5058609;28;20240;-69
2023/08/25 05:39:29;;;;;;;1.67;0.88;;;18.70;99.90;;;;;;5070565;28;20036;-70
2023/08/25 05:41:54;;;;;;;2.10;1.42;;;18.80;99.90;;;;;;5068080;28;20047;-69
2023/08/25 05:44:20;;;;;;;4.07;1.45;;;18.90;99.90;;;;;;5071047;28;20049;-69
2023/08/25 05:46:47;;;;;;;3.40;1.67;;;18.90;99.90;;;;;;5067241;28;20040;-68
2023/08/25 05:49:13;;;;;;;2.20;1.27;;;19.00;99.90;;;;;;5069798;28;20051;-68
2023/08/25 05:51:39;;;;;;;2.33;1.27;;;19.00;99.90;;;;;;5070701;28;20033;-69
2023/08/25 05:54:05;;;;;;;2.67;1.20;;;19.10;99.90;;;;;;5069143;28;20139;-68
2023/08/25 05:56:30;;;;;;;1.98;1.02;;;19.10;99.90;;;;;;5064521;28;20068;-69
2023/08/25 05:59:00;;;;;;;2.50;1.50;;;19.10;99.90;;;;;;5064867;28;20040;-69
2023/08/25 06:01:26;;;;;;;3.38;1.38;;;19.20;99.90;;;;;;5068445;28;20043;-69
2023/08/25 06:03:51;;;;;;;2.42;1.45;;;19.20;99.90;;;;;;5065956;28;20040;-68
2023/08/25 06:06:17;;;;;;;2.72;1.00;;;19.20;99.90;;;;;;5066810;28;20032;-68
2023/08/25 06:08:43;;;;;;;3.65;1.60;;;19.30;99.90;;;;;;5068682;28;20044;-68
2023/08/25 06:11:08;;;;;;;3.30;1.38;;;19.30;99.90;;;;;;5066859;28;20056;-68
2023/08/25 06:13:35;;;;;;;2.95;1.40;;;19.30;99.90;;;;;;5066101;28;20111;-69
2023/08/25 06:16:01;;;;;;;1.35;0.88;;;19.30;99.90;;;;;;5070794;28;20437;-69
2023/08/25 06:18:27;;;;;;;3.38;1.80;;;19.30;99.90;;;;;;5066287;28;20097;-69
2023/08/25 06:20:52;;;;;;;3.55;1.63;;;19.40;99.90;;;;;;5070327;28;20041;-69
2023/08/25 06:23:19;;;;;;;2.35;1.38;;;19.40;99.90;;;;;;5069416;28;20044;-68
2023/08/25 06:25:45;;;;;;;3.67;2.10;;;19.40;99.90;;;;;;5051304;28;20496;-68
2023/08/25 06:28:12;;;;;;;2.47;1.25;;;19.40;99.90;;;;;;5070084;28;20105;-69
2023/08/25 06:30:40;;;;;;;2.90;1.38;;;19.40;99.90;;;;;;5068502;28;20040;-68
2023/08/25 06:33:06;;;;;;;2.60;1.50;;;19.50;99.90;;;;;;5064344;28;20136;-68
2023/08/25 06:35:32;;;;;;;2.67;1.27;;;19.50;99.90;;;;;;5067401;28;20501;-68
2023/08/25 06:37:57;;;;;;;3.17;1.55;;;19.60;99.90;;;;;;5071298;28;20055;-69
2023/08/25 06:40:23;;;;;;;2.47;1.42;;;19.60;99.90;;;;;;5069123;28;20037;-69
2023/08/25 06:42:49;;;;;;;4.38;1.77;;;19.70;99.90;;;;;;5068654;28;20120;-69
2023/08/25 06:45:14;;;;;;;2.85;1.55;;;19.70;99.90;;;;;;5067828;28;20059;-69
2023/08/25 06:47:40;;;;;;;2.42;1.20;;;19.70;99.90;;;;;;5067854;28;20119;-69
2023/08/25 06:50:06;;;;;;;4.25;2.28;;;19.80;99.90;;;;;;5067775;28;20048;-69
2023/08/25 06:52:32;;;;;;;2.38;1.13;;;19.80;99.90;;;;;;5069887;28;20047;-69
2023/08/25 06:54:58;;;;;;;4.25;1.77;;;19.90;99.90;;;;;;5069079;28;20036;-69
2023/08/25 06:57:24;;;;;;;5.18;2.40;;;20.10;99.90;;;;;;5068692;28;20051;-69
2023/08/25 06:59:51;;;;;;;4.70;1.73;;;20.10;99.90;;;;;;5067513;28;20045;-69
2023/08/25 07:02:16;;;;;;;2.88;1.85;;;20.20;99.90;;;;;;5066438;28;20122;-69
2023/08/25 07:04:42;;;;;;;3.72;2.35;;;20.30;99.90;;;;;;5069006;28;20085;-69
2023/08/25 07:07:08;;;;;;;2.38;1.50;;;20.40;99.90;;;;;;5069024;28;20413;-69
2023/08/25 07:09:35;;;;;;;3.42;1.83;;;20.40;99.90;;;;;;5069845;28;20135;-69
2023/08/25 07:12:03;;;;;;;2.22;1.20;;;20.50;99.90;;;;;;5069197;28;20413;-69
2023/08/25 07:14:31;;;;;;;3.53;1.98;;;20.70;99.90;;;;;;5066932;28;20045;-69
2023/08/25 07:16:57;;;;;;;2.95;1.60;;;20.70;99.90;;;;;;5069234;28;20040;-69
2023/08/25 07:19:23;;;;;;;3.35;1.45;;;20.80;99.90;;;;;;5067193;28;20101;-69
2023/08/25 07:21:48;;;;;;;2.30;1.33;;;20.90;99.90;;;;;;5070109;28;20059;-69
2023/08/25 07:24:14;;;;;;;2.60;1.52;;;20.90;99.90;;;;;;5067287;28;20081;-69
2023/08/25 07:26:40;;;;;;;4.32;1.80;;;21.00;99.90;;;;;;5069366;28;20169;-69
2023/08/25 07:29:06;;;;;;;2.50;1.23;;;21.00;99.90;;;;;;5067128;28;20047;-69
2023/08/25 07:31:31;;;;;;;3.95;1.73;;;21.00;99.90;;;;;;5067380;28;20032;-69
2023/08/25 07:33:57;;;;;;;3.58;2.20;;;21.00;99.90;;;;;;5060041;28;20063;-69
2023/08/25 07:36:24;;;;;;;3.55;1.55;;;21.10;99.90;;;;;;5067677;28;20036;-69
2023/08/25 07:38:50;;;;;;;2.70;1.77;;;21.10;99.90;;;;;;5067167;28;20040;-69
2023/08/25 07:41:20;;;;;;;6.15;1.73;;;21.10;99.90;;;;;;5067528;28;20062;-69
2023/08/25 07:43:46;;;;;;;2.85;1.52;;;21.10;99.90;;;;;;5070152;28;20151;-69
2023/08/25 07:46:12;;;;;;;2.97;1.80;;;21.10;99.90;;;;;;5064827;28;20040;-69
2023/08/25 07:48:37;;;;;;;3.58;1.50;;;21.10;99.90;;;;;;5067608;28;20047;-69
2023/08/25 07:51:04;;;;;;;3.97;1.80;;;21.10;99.90;;;;;;5066219;28;20042;-69
2023/08/25 07:53:31;;;;;;;3.63;2.40;;;21.20;99.90;;;;;;5066955;28;20055;-68
2023/08/25 07:55:58;;;;;;;2.40;1.38;;;21.30;99.90;;;;;;5066263;28;20403;-68
2023/08/25 07:58:24;;;;;;;3.17;1.88;;;21.40;99.90;;;;;;5066780;28;20059;-68
2023/08/25 08:00:50;;;;;;;3.45;1.95;;;21.40;99.90;;;;;;5065575;28;20108;-68
2023/08/25 08:03:16;;;;;;;4.88;1.70;;;21.50;99.90;;;;;;5065241;28;20147;-68
2023/08/25 08:05:42;;;;;;;2.55;1.55;;;21.50;99.90;;;;;;5066351;28;20041;-68
2023/08/25 08:08:09;;;;;;;2.97;2.15;;;21.70;99.90;;;;;;5068638;28;20047;-68
2023/08/25 08:10:38;;;;;;;2.72;1.40;;;21.80;99.90;;;;;;5067227;28;20044;-69
2023/08/25 08:13:06;;;;;;;2.97;1.30;;;21.80;99.90;;;;;;5070112;28;20112;-68
2023/08/25 08:15:31;;;;;;;3.97;1.80;;;21.80;99.90;;;;;;5064909;28;20056;-68
2023/08/25 08:17:58;;;;;;;5.43;1.98;;;21.70;99.90;;;;;;5068013;28;20043;-69
2023/08/25 08:20:24;;;;;;;3.42;2.15;;;21.70;99.90;;;;;;5066742;28;20120;-69
2023/08/25 08:22:50;;;;;;;2.33;1.35;;;21.80;99.90;;;;;;5066529;28;20542;-68
2023/08/25 08:25:19;;;;;;;4.40;1.98;;;21.80;99.90;;;;;;5070331;28;20196;-68
2023/08/25 08:27:46;;;;;;;5.10;1.60;;;21.70;99.90;;;;;;5065203;28;20085;-68
2023/08/25 08:30:16;;;;;;;5.15;2.45;;;21.70;99.90;;;;;;5067036;28;20060;-68
2023/08/25 08:32:42;;;;;;;4.03;1.90;;;21.60;99.90;;;;;;5068047;28;20029;-68
2023/08/25 08:35:08;;;;;;;2.55;1.48;;;21.50;99.90;;;;;;5067359;28;20149;-68
2023/08/25 08:37:38;;;;;;;3.15;1.33;;;21.50;99.90;;;;;;5066290;28;20129;-67
2023/08/25 08:40:05;;;;;;;4.90;1.42;;;21.40;99.90;;;;;;5067436;28;20044;-67
2023/08/25 08:42:33;;;;;;;2.38;1.50;;;21.40;99.90;;;;;;5063202;28;20037;-67
2023/08/25 08:45:03;;;;;;;2.60;1.42;;;21.40;99.90;;;;;;5066817;28;20444;-68
2023/08/25 08:47:31;;;;;;;2.42;1.48;;;21.40;99.90;;;;;;5066115;28;20117;-68
2023/08/25 08:49:58;;;;;;;4.40;1.85;;;21.30;99.90;;;;;;5065115;28;20151;-68
2023/08/25 08:52:25;;;;;;;4.53;1.88;;;21.30;99.90;;;;;;5066009;28;20055;-68
2023/08/25 08:54:51;;;;;;;3.42;1.80;;;21.30;99.90;;;;;;5069430;28;20032;-68
2023/08/25 08:57:17;;;;;;;3.05;1.40;;;21.20;99.90;;;;;;5065524;28;20518;-68
2023/08/25 08:59:44;;;;;;;2.95;1.55;;;21.20;99.90;;;;;;5068721;28;20392;-68
2023/08/25 09:02:13;;;;;;;3.83;1.20;;;21.20;99.90;;;;;;5063362;28;20184;-68
2023/08/25 09:04:40;;;;;;;2.75;1.45;;;21.20;99.90;;;;;;5066562;28;20042;-68
2023/08/25 09:07:07;;;;;;;2.75;1.02;;;21.20;99.90;;;;;;5065554;28;20040;-69
2023/08/25 09:09:33;;;;;;;3.88;1.75;;;21.20;99.90;;;;;;5065513;28;20111;-68
2023/08/25 09:11:59;;;;;;;2.53;1.25;;;21.20;99.90;;;;;;5064895;28;20159;-68
2023/08/25 09:14:28;;;;;;;4.07;1.75;;;21.20;99.90;;;;;;5070386;28;20044;-68
2023/08/25 09:17:01;;;;;;;2.45;1.73;;;21.20;99.90;;;;;;5066785;28;20040;-68
2023/08/25 09:19:31;;;;;;;3.10;1.40;;;21.20;99.90;;;;;;5069910;28;20047;-68
2023/08/25 09:21:57;;;;;;;3.85;1.85;;;21.20;99.90;;;;;;5069347;28;20430;-69
2023/08/25 09:24:23;;;;;;;3.97;1.63;;;21.20;99.90;;;;;;5070992;28;20049;-68
2023/08/25 09:26:49;;;;;;;3.60;1.60;;;21.20;99.90;;;;;;5092476;28;20392;-69
2023/08/25 09:29:16;;;;;;;2.10;1.45;;;21.20;99.90;;;;;;5068955;28;20047;-68
2023/08/25 09:31:42;;;;;;;2.38;1.00;;;21.20;99.90;;;;;;5068064;28;20040;-68
2023/08/25 09:34:10;;;;;;;3.50;1.67;;;21.20;99.90;;;;;;5071136;28;20051;-69
2023/08/25 09:36:53;;;;;;;2.78;1.48;;;21.20;99.90;;;;;;5071622;28;20341;-68
2023/08/25 09:39:20;;;;;;;3.08;1.65;;;21.20;99.90;;;;;;5052537;28;20082;-68
2023/08/25 09:41:46;;;;;;;3.45;1.42;;;21.10;99.90;;;;;;5069386;28;20048;-69
2023/08/25 09:44:12;;;;;;;2.58;1.42;;;21.10;99.90;;;;;;5067178;28;20037;-68
2023/08/25 09:46:38;;;;;;;4.72;2.30;;;21.20;99.90;;;;;;5072462;28;20229;-68
2023/08/25 09:49:09;;;;;;;3.50;2.05;;;21.20;99.90;;;;;;5066283;28;20078;-69
2023/08/25 09:51:41;;;;;;;5.40;1.80;;;21.20;99.90;;;;;;5071043;28;20029;-69
2023/08/25 09:54:18;;;;;;;3.35;1.83;;;21.20;99.90;;;;;;5069415;28;20087;-69
2023/08/25 09:56:45;;;;;;;3.75;2.13;;;21.30;99.90;;;;;;5070435;28;20036;-69
2023/08/25 09:59:13;;;;;;;2.20;1.30;;;21.30;99.90;;;;;;5064565;28;20033;-69
2023/08/25 10:01:41;;;;;;;3.65;1.65;;;21.40;99.90;;;;;;5071915;28;20037;-69
2023/08/25 10:04:07;;;;;;;3.00;1.75;;;21.60;99.90;;;;;;5069328;28;20128;-69
2023/08/25 10:06:36;;;;;;;3.20;1.77;;;21.80;99.90;;;;;;5054914;28;20127;-69
2023/08/25 10:09:02;;;;;;;3.13;1.58;;;22.20;99.90;;;;;;5067731;28;20142;-69
2023/08/25 10:11:34;;;;;;;3.67;2.13;;;22.40;99.90;;;;;;5071257;28;20088;-67
2023/08/25 10:14:04;;;;;;;3.63;2.17;;;22.60;99.90;;;;;;5064105;28;20492;-67
2023/08/25 10:16:37;;;;;;;3.03;1.50;;;22.70;99.90;;;;;;5069407;28;20104;-68
2023/08/25 10:19:05;;;;;;;3.10;2.10;;;22.70;99.90;;;;;;5058139;28;20395;-68
2023/08/25 10:21:33;;;;;;;4.20;1.98;;;22.80;99.90;;;;;;5068952;28;20183;-68
2023/08/25 10:24:02;;;;;;;3.13;1.33;;;22.90;99.90;;;;;;5060219;28;20045;-69
2023/08/25 10:26:30;;;;;;;2.95;1.67;;;23.10;99.90;;;;;;5067990;28;20052;-70
2023/08/25 10:28:56;;;;;;;2.95;1.90;;;23.30;99.90;;;;;;5069340;28;20052;-69
2023/08/25 10:31:22;;;;;;;2.70;1.42;;;23.50;99.90;;;;;;5068121;28;20493;-69
2023/08/25 10:33:50;;;;;;;3.40;1.90;;;23.60;99.90;;;;;;5069426;28;20074;-70
2023/08/25 10:36:17;;;;;;;2.78;1.45;;;24.10;99.90;;;;;;5071331;28;20119;-69
2023/08/25 10:38:45;;;;;;;1.58;1.02;;;24.80;99.90;;;;;;5069905;28;20104;-69
2023/08/25 10:41:16;;;;;;;2.65;1.27;;;25.20;99.90;;;;;;5068603;28;20048;-69
2023/08/25 10:43:55;;;;;;;1.88;1.00;;;25.10;99.90;;;;;;5064959;28;20040;-69
2023/08/25 10:46:23;;;;;;;2.05;1.38;;;24.90;99.90;;;;;;5068490;28;20044;-69
2023/08/25 10:49:02;;;;;;;3.05;1.13;;;24.70;99.90;;;;;;5067178;28;20044;-69
2023/08/25 10:51:28;;;;;;;2.30;1.52;;;24.60;99.90;;;;;;5066695;28;20102;-69
2023/08/25 10:53:54;;;;;;;1.73;0.93;;;24.40;99.90;;;;;;5069116;28;20032;-69
2023/08/25 10:56:23;;;;;;;3.00;1.33;;;24.30;99.90;;;;;;5069161;28;20053;-69
2023/08/25 10:59:10;;;;;;;2.33;0.60;;;24.20;99.90;;;;;;5066971;28;20039;-69
2023/08/25 11:01:38;;;;;;;2.90;1.33;;;24.20;99.90;;;;;;5063355;28;20124;-69
2023/08/25 11:04:12;;;;;;;1.63;0.95;;;24.20;99.90;;;;;;5064221;28;20136;-69
2023/08/25 11:06:45;;;;;;;1.95;1.08;;;24.20;99.90;;;;;;5069657;28;20395;-69
2023/08/25 11:09:35;;;;;;;1.67;0.80;;;24.10;99.90;;;;;;5067551;28;20044;-69
2023/08/25 11:12:06;;;;;;;0.80;0.40;;;24.00;99.90;;;;;;5066689;28;20523;-69
2023/08/25 11:14:37;;;;;;;0.60;0.30;;;23.90;99.90;;;;;;5065059;28;20133;-69
2023/08/25 11:17:07;;;;;;;0.82;0.30;;;23.80;99.90;;;;;;5068616;28;20396;-69
2023/08/25 11:19:39;;;;;;;1.02;0.55;;;23.70;99.90;;;;;;5067731;28;20511;-69
2023/08/25 11:22:14;;;;;;;2.63;0.77;;;23.70;99.90;;;;;;5046631;28;20103;-69
2023/08/25 11:24:40;;;;;;;1.08;0.55;;;23.70;99.90;;;;;;5051728;28;20140;-69
2023/08/25 11:27:06;;;;;;;2.70;0.50;;;23.60;99.90;;;;;;5067501;28;20041;-69
2023/08/25 11:29:33;;;;;;;3.53;0.73;;;23.60;99.90;;;;;;5067605;28;20044;-69
2023/08/25 11:32:00;;;;;;;1.88;0.40;;;23.50;99.90;;;;;;5069110;28;20133;-69
2023/08/25 11:34:28;;;;;;;1.13;0.43;;;23.40;99.90;;;;;;5067945;28;20036;-69
2023/08/25 11:36:54;;;;;;;1.65;0.30;;;23.30;99.90;;;;;;5065905;28;20552;-69
2023/08/25 11:39:20;;;;;;;0.45;0.30;;;23.30;99.90;;;;;;5068579;28;20161;-69
2023/08/25 11:41:46;;;;;;;1.48;0.65;;;23.30;99.90;;;;;;5070112;28;20118;-69
2023/08/25 11:44:12;;;;;;;1.85;1.02;;;23.30;99.90;;;;;;5068755;28;20492;-69
2023/08/25 11:46:39;;;;;;;2.97;1.17;;;23.20;99.90;;;;;;5069152;28;20115;-69
2023/08/25 11:49:09;;;;;;;1.83;1.00;;;23.20;99.90;;;;;;5067837;28;20089;-69
2023/08/25 11:51:35;;;;;;;2.35;1.23;;;23.20;99.90;;;;;;5068439;28;20047;-69
2023/08/25 11:54:02;;;;;;;2.50;1.40;;;23.10;99.90;;;;;;5067087;28;20029;-69
2023/08/25 11:56:27;;;;;;;1.75;1.10;;;23.00;99.90;;;;;;5067470;28;20044;-69
2023/08/25 11:58:53;;;;;;;2.03;1.25;;;23.00;99.90;;;;;;5063198;28;20040;-70
2023/08/25 12:01:19;;;;;;;1.52;0.95;;;22.90;99.90;;;;;;5047879;28;20044;-68
2023/08/25 12:03:47;;;;;;;2.08;0.98;;;22.80;99.90;;;;;;5066819;28;20116;-68
2023/08/25 12:06:13;;;;;;;1.55;0.73;;;22.80;99.90;;;;;;5067031;28;20075;-68
2023/08/25 12:08:40;;;;;;;1.65;0.73;;;22.80;99.90;;;;;;5065713;28;20387;-69
2023/08/25 12:11:10;;;;;;;3.15;1.20;;;22.80;99.90;;;;;;5067644;28;20045;-69
2023/08/25 12:13:40;;;;;;;3.75;1.08;;;22.90;99.90;;;;;;5064703;28;20055;-68
2023/08/25 12:16:06;;;;;;;1.98;1.05;;;23.00;99.90;;;;;;5068255;28;20476;-68
2023/08/25 12:18:37;;;;;;;1.50;0.60;;;23.00;99.90;;;;;;5068163;28;20047;-68
2023/08/25 12:21:05;;;;;;;0.90;0.50;;;23.10;99.90;;;;;;5065875;28;20036;-68
2023/08/25 12:23:41;;;;;;;2.63;1.15;;;23.10;99.90;;;;;;5067274;28;21208;-68
2023/08/25 12:26:14;;;;;;;1.63;0.93;;;23.00;99.90;;;;;;5067938;28;20048;-69
2023/08/25 12:28:40;;;;;;;3.55;1.20;;;23.00;99.90;;;;;;5065901;28;20055;-69
2023/08/25 12:31:06;;;;;;;1.60;1.15;;;23.00;99.90;;;;;;5067365;28;20098;-69
2023/08/25 12:33:32;;;;;;;0.77;0.50;;;22.90;99.90;;;;;;5065019;28;20037;-69
2023/08/25 12:35:58;;;;;;;2.35;0.95;;;22.80;99.90;;;;;;5064671;28;20033;-69
2023/08/25 12:38:24;;;;;;;1.42;0.80;;;22.80;99.90;;;;;;5065229;28;20106;-69
2023/08/25 12:40:50;;;;;;;1.55;0.90;;;22.80;99.90;;;;;;5064538;28;20090;-69
2023/08/25 12:43:16;;;;;;;1.33;0.85;;;22.70;99.90;;;;;;5066470;28;20427;-69
2023/08/25 12:45:42;;;;;;;1.15;0.60;;;22.70;99.90;;;;;;5048859;28;20044;-69
2023/08/25 12:48:08;;;;;;;1.95;0.70;;;22.60;99.90;;;;;;5066544;28;20039;-68